createdAt,value
2019-02-27T00:01:06.889Z,90.80
2019-02-27T00:03:36.483Z,90.60
2019-02-27T00:06:05.827Z,90.60
2019-02-27T00:08:35.127Z,90.70
2019-02-27T00:11:04.666Z,90.50
2019-02-27T00:13:34.190Z,90.30
2019-02-27T00:16:03.550Z,90.40
2019-02-27T00:18:33.074Z,90.50
2019-02-27T00:21:02.334Z,90.60
2019-02-27T00:23:31.855Z,91.00
2019-02-27T00:26:01.508Z,91.10
2019-02-27T00:28:31.118Z,91.10
2019-02-27T00:31:02.506Z,90.70
2019-02-27T00:33:31.354Z,90.70
2019-02-27T00:36:00.876Z,90.70
2019-02-27T00:38:30.476Z,90.60
2019-02-27T00:40:59.822Z,90.30
2019-02-27T00:43:29.134Z,90.30
2019-02-27T00:45:58.508Z,90.40
2019-02-27T00:48:28.026Z,90.00
2019-02-27T00:50:57.568Z,90.10
2019-02-27T00:53:26.902Z,90.00
2019-02-27T00:55:56.121Z,89.80
2019-02-27T00:58:27.073Z,89.80
2019-02-27T01:00:56.362Z,90.00
2019-02-27T01:03:26.277Z,90.20
2019-02-27T01:05:56.048Z,90.30
2019-02-27T01:08:27.598Z,90.60
2019-02-27T01:10:56.689Z,90.40
2019-02-27T01:13:25.973Z,90.80
2019-02-27T01:15:55.454Z,90.70
2019-02-27T01:18:30.327Z,91.00
2019-02-27T01:20:56.592Z,90.70
2019-02-27T01:23:25.881Z,91.00
2019-02-27T01:25:56.909Z,91.10
2019-02-27T01:28:28.305Z,91.10
2019-02-27T01:30:59.309Z,91.30
2019-02-27T01:33:30.441Z,91.40
2019-02-27T01:36:01.337Z,90.90
2019-02-27T01:38:32.070Z,91.20
2019-02-27T01:41:01.652Z,91.10
2019-02-27T01:43:31.264Z,90.90
2019-02-27T01:46:01.977Z,90.60
2019-02-27T01:48:32.410Z,90.30
2019-02-27T01:51:03.269Z,90.40
2019-02-27T01:53:34.730Z,90.50
2019-02-27T01:56:05.774Z,90.50
2019-02-27T01:58:36.801Z,90.70
2019-02-27T02:01:06.244Z,90.50
2019-02-27T02:03:36.162Z,90.50
2019-02-27T02:06:06.844Z,90.50
2019-02-27T02:08:37.794Z,91.00
2019-02-27T02:11:11.162Z,91.50
2019-02-27T02:13:49.655Z,91.50
2019-02-27T02:16:43.773Z,91.60
2019-02-27T02:20:06.953Z,91.50
2019-02-27T02:23:05.851Z,91.50
2019-02-27T02:26:09.721Z,91.90
2019-02-27T02:29:23.778Z,92.20
2019-02-27T02:32:24.311Z,92.50
2019-02-27T02:35:31.176Z,92.70
2019-02-27T02:38:38.055Z,93.20
2019-02-27T02:41:38.471Z,93.10
2019-02-27T02:44:43.248Z,93.20
2019-02-27T02:47:40.612Z,93.40
2019-02-27T02:50:54.008Z,93.20
2019-02-27T02:53:50.268Z,93.00
2019-02-27T02:56:44.467Z,92.70
2019-02-27T02:59:48.630Z,93.00
2019-02-27T03:02:39.631Z,92.90
2019-02-27T03:05:39.879Z,92.50
2019-02-27T03:08:30.942Z,92.20
2019-02-27T03:11:23.962Z,92.30
2019-02-27T03:14:33.894Z,92.80
2019-02-27T03:17:41.354Z,92.80
2019-02-27T03:20:52.469Z,92.80
2019-02-27T03:23:57.303Z,93.00
2019-02-27T03:27:10.412Z,93.10
2019-02-27T03:30:17.440Z,93.20
2019-02-27T03:33:26.712Z,93.50
2019-02-27T03:36:41.149Z,93.50
2019-02-27T03:39:34.417Z,93.40
2019-02-27T03:42:49.412Z,93.40
2019-02-27T03:45:48.536Z,93.50
2019-02-27T03:48:47.060Z,93.30
2019-02-27T03:51:37.461Z,93.60
2019-02-27T03:54:32.759Z,93.60
2019-02-27T03:57:30.650Z,93.60
2019-02-27T04:00:44.210Z,93.40
2019-02-27T04:03:40.510Z,93.30
2019-02-27T04:06:31.221Z,93.20
2019-02-27T04:09:01.297Z,92.90
2019-02-27T04:11:31.124Z,92.90
2019-02-27T04:14:04.731Z,92.70
2019-02-27T04:16:32.550Z,92.70
2019-02-27T04:19:04.604Z,92.80
2019-02-27T04:21:33.168Z,92.90
2019-02-27T04:24:02.461Z,93.10
2019-02-27T04:26:31.731Z,93.00
2019-02-27T04:29:04.170Z,92.80
2019-02-27T04:31:32.556Z,93.00
2019-02-27T04:34:01.816Z,92.80
2019-02-27T04:36:31.134Z,92.80
2019-02-27T04:39:02.410Z,92.80
2019-02-27T04:41:31.645Z,92.80
2019-02-27T04:44:05.358Z,92.80
2019-02-27T04:46:32.178Z,92.80
2019-02-27T04:49:04.048Z,92.80
2019-02-27T04:51:32.354Z,93.00
2019-02-27T04:54:06.390Z,92.80
2019-02-27T04:56:32.838Z,92.80
2019-02-27T04:59:02.089Z,93.00
2019-02-27T05:01:36.070Z,92.90
2019-02-27T05:04:02.535Z,93.10
2019-02-27T05:06:32.176Z,93.10
2019-02-27T05:09:01.498Z,93.10
2019-02-27T05:11:30.778Z,93.70
2019-02-27T05:14:00.132Z,93.70
2019-02-27T05:16:29.396Z,93.70
2019-02-27T05:19:03.707Z,94.10
2019-02-27T05:21:29.687Z,94.20
2019-02-27T05:23:59.010Z,94.20
2019-02-27T05:26:28.311Z,94.10
2019-02-27T05:28:57.615Z,94.20
2019-02-27T05:31:26.966Z,94.40
2019-02-27T05:33:56.595Z,94.70
2019-02-27T05:36:25.871Z,94.60
2019-02-27T05:38:55.183Z,94.50
2019-02-27T05:41:24.435Z,94.70
2019-02-27T05:43:53.722Z,94.30
2019-02-27T05:46:23.056Z,94.20
2019-02-27T05:48:53.503Z,94.10
2019-02-27T05:51:23.274Z,94.60
2019-02-27T05:53:52.521Z,94.80
2019-02-27T05:56:21.867Z,95.30
2019-02-27T05:58:51.122Z,95.20
2019-02-27T06:01:20.470Z,95.00
2019-02-27T06:03:52.236Z,94.70
2019-02-27T06:06:20.680Z,94.80
2019-02-27T06:08:50.199Z,94.90
2019-02-27T06:11:19.575Z,95.00
2019-02-27T06:13:48.803Z,95.10
2019-02-27T06:16:18.158Z,94.90
2019-02-27T06:18:47.486Z,94.60
2019-02-27T06:21:16.757Z,94.10
2019-02-27T06:23:46.020Z,94.10
2019-02-27T06:26:15.725Z,94.10
2019-02-27T06:28:45.006Z,94.10
2019-02-27T06:31:14.584Z,93.90
2019-02-27T06:33:45.759Z,93.80
2019-02-27T06:36:15.075Z,94.00
2019-02-27T06:38:44.688Z,93.60
2019-02-27T06:41:15.660Z,93.40
2019-02-27T06:43:45.003Z,93.20
2019-02-27T06:46:14.342Z,93.00
2019-02-27T06:48:44.178Z,92.90
2019-02-27T06:51:13.619Z,92.80
2019-02-27T06:53:42.899Z,92.70
2019-02-27T06:56:12.214Z,92.70
2019-02-27T06:58:41.463Z,92.50
2019-02-27T07:01:13.128Z,92.40
2019-02-27T07:03:41.687Z,91.80
2019-02-27T07:06:10.924Z,91.20
2019-02-27T07:08:40.282Z,90.50
2019-02-27T07:11:11.231Z,90.20
2019-02-27T07:13:40.709Z,90.30
2019-02-27T07:16:10.067Z,89.80
2019-02-27T07:18:41.879Z,89.40
2019-02-27T07:21:10.709Z,89.20
2019-02-27T07:23:40.348Z,88.70
2019-02-27T07:26:09.783Z,88.10
2019-02-27T07:28:43.188Z,87.50
2019-02-27T07:31:09.989Z,86.80
2019-02-27T07:33:40.649Z,86.10
2019-02-27T07:36:10.658Z,86.10
2019-02-27T07:38:39.912Z,86.10
2019-02-27T07:41:09.520Z,85.60
2019-02-27T07:43:38.890Z,85.40
2019-02-27T07:46:08.355Z,84.90
2019-02-27T07:48:37.706Z,84.60
2019-02-27T07:51:06.945Z,84.20
2019-02-27T07:53:36.545Z,84.00
2019-02-27T07:56:05.791Z,83.40
2019-02-27T07:58:35.403Z,83.00
2019-02-27T08:01:04.870Z,82.90
2019-02-27T08:03:34.474Z,82.90
2019-02-27T08:06:03.778Z,82.70
2019-02-27T08:08:33.327Z,82.40
2019-02-27T08:11:02.596Z,82.10
2019-02-27T08:13:32.574Z,81.80
2019-02-27T08:16:01.937Z,81.40
2019-02-27T08:18:36.648Z,80.80
2019-02-27T08:21:02.087Z,80.70
2019-02-27T08:23:31.724Z,80.40
2019-02-27T08:26:04.761Z,80.30
2019-02-27T08:28:33.466Z,79.80
2019-02-27T08:31:02.746Z,80.00
2019-02-27T08:33:32.321Z,79.40
2019-02-27T08:36:01.651Z,78.60
2019-02-27T08:38:30.982Z,78.00
2019-02-27T08:41:00.493Z,77.20
2019-02-27T08:43:30.510Z,76.80
2019-02-27T08:46:02.176Z,76.50
2019-02-27T08:48:30.826Z,76.40
2019-02-27T08:51:00.101Z,75.90
2019-02-27T08:53:29.454Z,75.60
2019-02-27T08:55:58.980Z,74.80
2019-02-27T08:58:29.688Z,74.10
2019-02-27T09:00:59.972Z,73.40
2019-02-27T09:03:29.243Z,73.10
2019-02-27T09:05:58.484Z,72.10
2019-02-27T09:08:27.732Z,72.30
2019-02-27T09:10:57.044Z,71.90
2019-02-27T09:13:26.629Z,71.50
2019-02-27T09:15:56.842Z,70.60
2019-02-27T09:18:26.235Z,70.20
2019-02-27T09:20:55.534Z,69.70
2019-02-27T09:23:24.804Z,69.10
2019-02-27T09:25:57.222Z,68.60
2019-02-27T09:28:25.103Z,68.60
2019-02-27T09:30:54.556Z,68.90
2019-02-27T09:33:23.822Z,66.80
2019-02-27T09:35:53.148Z,65.80
2019-02-27T09:38:24.376Z,65.70
2019-02-27T09:40:53.441Z,65.00
2019-02-27T09:43:24.088Z,64.70
2019-02-27T09:45:53.969Z,63.50
2019-02-27T09:48:23.295Z,62.60
2019-02-27T09:50:52.887Z,62.20
2019-02-27T09:53:22.203Z,61.50
2019-02-27T09:55:54.330Z,61.10
2019-02-27T09:58:22.852Z,59.80
2019-02-27T10:01:00.304Z,59.20
2019-02-27T10:03:28.811Z,58.60
2019-02-27T10:05:58.074Z,57.80
2019-02-27T10:08:27.373Z,56.20
2019-02-27T10:10:56.713Z,55.10
2019-02-27T10:13:26.025Z,54.90
2019-02-27T10:15:58.064Z,54.30
2019-02-27T10:18:26.347Z,52.60
2019-02-27T10:20:55.685Z,52.00
2019-02-27T10:23:25.053Z,50.80
2019-02-27T10:25:54.834Z,49.80
2019-02-27T10:28:24.357Z,48.70
2019-02-27T10:30:53.746Z,47.70
2019-02-27T10:33:25.840Z,46.90
2019-02-27T10:35:55.198Z,46.00
2019-02-27T10:38:26.117Z,45.90
2019-02-27T10:40:55.422Z,46.60
2019-02-27T10:43:25.000Z,47.30
2019-02-27T10:45:54.341Z,45.70
2019-02-27T10:48:23.577Z,44.40
2019-02-27T10:50:52.905Z,44.30
2019-02-27T10:53:27.224Z,44.40
2019-02-27T10:55:53.522Z,44.50
2019-02-27T10:58:24.597Z,44.60
2019-02-27T11:00:53.806Z,43.30
2019-02-27T11:03:26.161Z,43.30
2019-02-27T11:05:55.591Z,43.00
2019-02-27T11:08:29.611Z,42.80
2019-02-27T11:10:59.928Z,43.40
2019-02-27T11:13:31.496Z,44.60
2019-02-27T11:16:00.803Z,44.30
2019-02-27T11:18:30.162Z,43.70
2019-02-27T11:20:59.421Z,43.70
2019-02-27T11:23:28.669Z,43.60
2019-02-27T11:25:58.119Z,41.40
2019-02-27T11:28:27.451Z,40.00
2019-02-27T11:30:56.812Z,40.00
2019-02-27T11:33:26.312Z,37.90
2019-02-27T11:35:55.661Z,37.70
2019-02-27T11:38:25.518Z,39.10
2019-02-27T11:40:54.879Z,37.20
2019-02-27T11:43:24.198Z,37.30
2019-02-27T11:45:57.507Z,37.40
2019-02-27T11:48:24.701Z,37.10
2019-02-27T11:50:54.237Z,37.10
2019-02-27T11:53:23.553Z,36.60
2019-02-27T11:55:52.963Z,35.60
2019-02-27T11:58:22.313Z,35.30
2019-02-27T12:00:51.618Z,33.40
2019-02-27T12:03:21.426Z,32.70
2019-02-27T12:05:50.841Z,31.50
2019-02-27T12:08:22.363Z,29.20
2019-02-27T12:10:51.663Z,29.60
2019-02-27T12:13:20.994Z,27.50
2019-02-27T12:15:50.213Z,29.30
2019-02-27T12:18:19.842Z,29.10
2019-02-27T12:20:53.152Z,28.70
2019-02-27T12:23:20.144Z,28.60
2019-02-27T12:25:49.378Z,28.70
2019-02-27T12:28:18.934Z,28.60
2019-02-27T12:30:48.240Z,27.40
2019-02-27T12:33:17.570Z,28.30
2019-02-27T12:35:47.069Z,27.20
2019-02-27T12:38:16.344Z,26.40
2019-02-27T12:40:45.649Z,26.90
2019-02-27T12:43:18.365Z,26.40
2019-02-27T12:45:45.855Z,26.30
2019-02-27T12:48:15.139Z,26.00
2019-02-27T12:50:44.695Z,26.10
2019-02-27T12:53:14.306Z,25.40
2019-02-27T12:55:43.937Z,24.70
2019-02-27T12:58:13.605Z,25.20
2019-02-27T13:00:43.146Z,24.60
2019-02-27T13:03:12.757Z,24.20
2019-02-27T13:05:42.134Z,23.20
2019-02-27T13:08:11.764Z,22.30
2019-02-27T13:10:41.254Z,22.60
2019-02-27T13:13:10.510Z,22.40
2019-02-27T13:15:41.152Z,21.60
2019-02-27T13:18:11.501Z,22.10
2019-02-27T13:20:42.980Z,21.30
2019-02-27T13:23:11.886Z,18.00
2019-02-27T13:25:41.204Z,19.60
2019-02-27T13:28:10.754Z,18.40
2019-02-27T13:30:41.705Z,19.80
2019-02-27T13:33:11.723Z,20.60
2019-02-27T13:35:41.237Z,20.80
2019-02-27T13:38:10.496Z,20.60
2019-02-27T13:40:40.067Z,21.30
2019-02-27T13:43:09.324Z,19.70
2019-02-27T13:45:38.626Z,19.30
2019-02-27T13:48:07.886Z,19.10
2019-02-27T13:50:37.186Z,18.20
2019-02-27T13:53:06.517Z,18.80
2019-02-27T13:55:35.761Z,18.90
2019-02-27T13:58:05.542Z,18.90
2019-02-27T14:00:35.173Z,19.80
2019-02-27T14:03:04.650Z,20.40
2019-02-27T14:05:36.140Z,20.60
2019-02-27T14:08:04.885Z,21.20
2019-02-27T14:10:34.241Z,21.40
2019-02-27T14:13:08.735Z,21.80
2019-02-27T14:15:34.669Z,21.90
2019-02-27T14:18:04.280Z,23.00
2019-02-27T14:20:33.594Z,22.80
2019-02-27T14:23:03.321Z,23.40
2019-02-27T14:25:33.401Z,23.50
2019-02-27T14:28:02.851Z,23.60
2019-02-27T14:30:36.461Z,23.60
2019-02-27T14:33:05.889Z,23.40
2019-02-27T14:35:36.547Z,23.40
2019-02-27T14:38:06.287Z,23.40
2019-02-27T14:40:40.220Z,23.60
2019-02-27T14:43:07.237Z,23.70
2019-02-27T14:45:39.600Z,23.70
2019-02-27T14:48:07.480Z,23.70
2019-02-27T14:50:36.774Z,23.80
2019-02-27T14:53:06.266Z,23.70
2019-02-27T14:55:37.253Z,23.70
2019-02-27T14:58:06.800Z,23.80
2019-02-27T15:00:39.867Z,23.80
2019-02-27T15:03:06.978Z,23.70
2019-02-27T15:05:36.937Z,23.70
2019-02-27T15:08:07.489Z,23.70
2019-02-27T15:10:40.206Z,23.70
2019-02-27T15:13:07.945Z,24.60
2019-02-27T15:15:37.238Z,25.00
2019-02-27T15:18:06.693Z,25.00
2019-02-27T15:20:40.186Z,25.90
2019-02-27T15:23:07.506Z,26.60
2019-02-27T15:25:41.933Z,26.30
2019-02-27T15:28:08.035Z,26.70
2019-02-27T15:30:37.314Z,27.30
2019-02-27T15:33:06.650Z,27.20
2019-02-27T15:35:36.286Z,27.60
2019-02-27T15:38:05.642Z,28.00
2019-02-27T15:40:35.045Z,28.10
2019-02-27T15:43:11.028Z,27.80
2019-02-27T15:45:35.403Z,27.80
2019-02-27T15:48:06.942Z,28.00
2019-02-27T15:50:35.687Z,29.40
2019-02-27T15:53:04.914Z,29.20
2019-02-27T15:55:35.270Z,29.40
2019-02-27T15:58:04.773Z,29.90
2019-02-27T16:00:34.192Z,29.90
2019-02-27T16:03:03.501Z,29.90
2019-02-27T16:05:32.801Z,29.90
2019-02-27T16:08:02.127Z,30.50
2019-02-27T16:10:31.467Z,31.10
2019-02-27T16:13:01.413Z,31.80
2019-02-27T16:15:30.771Z,32.50
2019-02-27T16:18:04.394Z,32.60
2019-02-27T16:20:31.909Z,33.20
2019-02-27T16:23:04.091Z,33.40
2019-02-27T16:25:32.187Z,33.20
2019-02-27T16:28:01.493Z,33.40
2019-02-27T16:30:32.429Z,33.70
2019-02-27T16:33:01.729Z,33.80
2019-02-27T16:35:31.140Z,33.80
2019-02-27T16:38:00.348Z,34.00
2019-02-27T16:40:29.718Z,34.10
2019-02-27T16:42:58.963Z,34.60
2019-02-27T16:45:32.451Z,34.90
2019-02-27T16:47:59.961Z,34.70
2019-02-27T16:50:29.520Z,34.70
2019-02-27T16:52:58.758Z,35.50
2019-02-27T16:55:28.027Z,36.00
2019-02-27T16:57:57.853Z,36.30
2019-02-27T17:00:28.673Z,36.40
2019-02-27T17:02:58.167Z,36.20
2019-02-27T17:05:27.655Z,36.20
2019-02-27T17:08:00.955Z,36.70
2019-02-27T17:10:29.726Z,37.70
2019-02-27T17:12:59.545Z,38.60
2019-02-27T17:15:34.731Z,40.00
2019-02-27T17:17:59.978Z,39.20
2019-02-27T17:20:29.554Z,38.70
2019-02-27T17:22:59.080Z,39.10
2019-02-27T17:25:30.051Z,40.10
2019-02-27T17:27:59.470Z,40.00
2019-02-27T17:30:30.369Z,40.80
2019-02-27T17:33:01.422Z,41.10
2019-02-27T17:35:30.624Z,41.90
2019-02-27T17:38:00.208Z,42.10
2019-02-27T17:40:29.498Z,41.80
2019-02-27T17:42:58.745Z,42.20
2019-02-27T17:45:28.596Z,42.90
2019-02-27T17:47:57.913Z,42.70
2019-02-27T17:50:31.378Z,43.60
2019-02-27T17:52:58.688Z,43.90
2019-02-27T17:55:28.110Z,44.30
2019-02-27T17:57:58.446Z,44.60
2019-02-27T18:00:35.603Z,45.10
2019-02-27T18:03:05.819Z,45.20
2019-02-27T18:05:35.229Z,44.10
2019-02-27T18:08:04.792Z,44.20
2019-02-27T18:10:37.287Z,44.90
2019-02-27T18:13:05.641Z,45.20
2019-02-27T18:15:35.228Z,45.80
2019-02-27T18:18:07.167Z,46.50
2019-02-27T18:20:35.466Z,47.90
2019-02-27T18:23:05.098Z,48.40
2019-02-27T18:25:34.390Z,49.10
2019-02-27T18:28:03.729Z,49.80
2019-02-27T18:30:33.212Z,49.80
2019-02-27T18:33:02.753Z,49.80
2019-02-27T18:35:32.090Z,49.80
2019-02-27T18:38:01.419Z,49.80
2019-02-27T18:40:30.775Z,50.40
2019-02-27T18:43:00.417Z,50.00
2019-02-27T18:45:29.861Z,49.80
2019-02-27T18:47:59.485Z,50.60
2019-02-27T18:50:28.811Z,50.80
2019-02-27T18:52:58.088Z,51.10
2019-02-27T18:55:30.900Z,51.60
2019-02-27T18:57:58.276Z,50.90
2019-02-27T19:00:27.697Z,50.90
2019-02-27T19:02:57.114Z,51.50
2019-02-27T19:05:26.374Z,52.50
2019-02-27T19:07:55.728Z,52.60
2019-02-27T19:10:25.273Z,52.50
2019-02-27T19:12:54.893Z,51.10
2019-02-27T19:15:24.508Z,51.20
2019-02-27T19:17:54.378Z,53.00
2019-02-27T19:20:26.376Z,53.70
2019-02-27T19:22:55.634Z,54.20
2019-02-27T19:25:25.148Z,54.30
2019-02-27T19:27:54.708Z,53.40
2019-02-27T19:30:24.134Z,53.10
2019-02-27T19:32:58.273Z,53.30
2019-02-27T19:35:24.421Z,53.70
2019-02-27T19:37:54.132Z,53.40
2019-02-27T19:40:23.718Z,53.60
2019-02-27T19:43:01.102Z,53.50
2019-02-27T19:45:30.447Z,53.50
2019-02-27T19:48:00.022Z,53.70
2019-02-27T19:50:29.366Z,53.50
2019-02-27T19:53:03.381Z,54.00
2019-02-27T19:55:29.636Z,54.20
2019-02-27T19:57:59.194Z,54.90
2019-02-27T20:00:33.877Z,55.10
2019-02-27T20:03:01.528Z,55.10
2019-02-27T20:05:31.209Z,55.20
2019-02-27T20:08:02.376Z,55.40
2019-02-27T20:10:33.199Z,55.50
2019-02-27T20:13:02.388Z,55.20
2019-02-27T20:15:31.650Z,54.50
2019-02-27T20:18:00.915Z,54.60
2019-02-27T20:20:30.680Z,54.10
2019-02-27T20:22:59.955Z,52.60
2019-02-27T20:25:29.384Z,51.30
2019-02-27T20:27:59.088Z,50.50
2019-02-27T20:30:28.629Z,49.90
2019-02-27T20:32:59.788Z,49.50
2019-02-27T20:35:28.955Z,49.70
2019-02-27T20:37:58.767Z,49.60
2019-02-27T20:40:30.805Z,49.50
2019-02-27T20:42:59.316Z,49.40
2019-02-27T20:45:29.240Z,50.40
2019-02-27T20:48:01.679Z,50.50
2019-02-27T20:50:38.279Z,50.90
2019-02-27T20:53:07.946Z,50.80
2019-02-27T20:55:37.548Z,51.60
2019-02-27T20:58:07.263Z,51.80
2019-02-27T21:00:37.288Z,52.00
2019-02-27T21:03:06.616Z,52.40
2019-02-27T21:05:35.863Z,52.60
2019-02-27T21:08:05.725Z,52.50
2019-02-27T21:10:35.059Z,53.60
2019-02-27T21:13:04.431Z,53.80
2019-02-27T21:15:35.258Z,53.90
2019-02-27T21:18:04.680Z,54.20
2019-02-27T21:20:34.001Z,55.30
2019-02-27T21:23:03.246Z,55.40
2019-02-27T21:25:33.066Z,55.60
2019-02-27T21:28:06.838Z,54.80
2019-02-27T21:30:34.053Z,54.90
2019-02-27T21:33:03.321Z,55.50
2019-02-27T21:35:32.683Z,55.60
2019-02-27T21:38:02.639Z,55.40
2019-02-27T21:40:33.422Z,54.20
2019-02-27T21:43:03.235Z,53.50
2019-02-27T21:45:37.253Z,53.20
2019-02-27T21:48:04.128Z,52.50
2019-02-27T21:50:33.403Z,53.40
2019-02-27T21:53:02.671Z,52.90
2019-02-27T21:55:32.735Z,51.90
2019-02-27T21:58:02.653Z,51.70
2019-02-27T22:00:31.979Z,52.00
2019-02-27T22:03:05.005Z,52.30
2019-02-27T22:05:40.009Z,53.10
2019-02-27T22:08:05.475Z,53.30
2019-02-27T22:10:34.526Z,53.20
2019-02-27T22:13:09.305Z,53.20
2019-02-27T22:15:35.218Z,53.20
2019-02-27T22:18:04.814Z,53.40
2019-02-27T22:20:34.387Z,53.70
2019-02-27T22:23:04.096Z,53.80
2019-02-27T22:25:33.417Z,53.80
2019-02-27T22:28:02.775Z,54.00
2019-02-27T22:30:32.700Z,54.50
2019-02-27T22:33:02.726Z,54.60
2019-02-27T22:35:37.217Z,55.00
2019-02-27T22:38:05.637Z,54.80
2019-02-27T22:40:38.023Z,55.30
2019-02-27T22:43:05.474Z,54.90
2019-02-27T22:45:36.064Z,54.20
2019-02-27T22:48:06.139Z,54.30
2019-02-27T22:50:38.161Z,54.20
2019-02-27T22:53:06.481Z,54.40
2019-02-27T22:55:36.359Z,54.40
2019-02-27T22:58:05.819Z,54.50
2019-02-27T23:01:14.852Z,54.50
2019-02-27T23:03:49.098Z,54.60
2019-02-27T23:06:18.359Z,54.60
2019-02-27T23:08:47.679Z,54.60
2019-02-27T23:11:17.356Z,55.00
2019-02-27T23:13:48.422Z,55.70
2019-02-27T23:16:18.630Z,55.70
2019-02-27T23:18:47.953Z,56.00
2019-02-27T23:21:17.667Z,56.50
2019-02-27T23:23:47.266Z,57.00
2019-02-27T23:26:19.812Z,56.60
2019-02-27T23:28:47.796Z,57.00
2019-02-27T23:31:22.453Z,57.30
2019-02-27T23:33:48.262Z,57.70
2019-02-27T23:36:17.508Z,57.60
2019-02-27T23:38:47.335Z,58.10
2019-02-27T23:41:16.916Z,57.20
2019-02-27T23:43:46.243Z,57.80
2019-02-27T23:46:18.582Z,57.40
2019-02-27T23:48:47.283Z,57.10
2019-02-27T23:51:17.141Z,57.90
2019-02-27T23:53:46.398Z,58.50
2019-02-27T23:56:19.269Z,58.70
2019-02-27T23:58:46.833Z,58.60
